createdAt,value
2019-02-23T00:02:22.692Z,-79
2019-02-23T00:04:50.460Z,-81
2019-02-23T00:07:18.256Z,-80
2019-02-23T00:09:46.044Z,-80
2019-02-23T00:12:13.836Z,-78
2019-02-23T00:14:41.647Z,-80
2019-02-23T00:17:09.491Z,-78
2019-02-23T00:19:37.267Z,-79
2019-02-23T00:22:05.048Z,-77
2019-02-23T00:24:32.785Z,-78
2019-02-23T00:27:00.576Z,-78
2019-02-23T00:29:28.315Z,-79
2019-02-23T00:31:56.432Z,-79
2019-02-23T00:34:24.146Z,-79
2019-02-23T00:36:51.903Z,-81
2019-02-23T00:39:19.691Z,-79
2019-02-23T00:41:47.409Z,-79
2019-02-23T00:44:15.174Z,-81
2019-02-23T00:46:42.915Z,-79
2019-02-23T00:49:10.703Z,-80
2019-02-23T00:51:38.426Z,-81
2019-02-23T00:54:06.220Z,-78
2019-02-23T00:56:33.973Z,-81
2019-02-23T00:59:01.739Z,-79
2019-02-23T01:01:29.491Z,-80
2019-02-23T01:03:57.255Z,-79
2019-02-23T01:06:25.034Z,-80
2019-02-23T01:08:52.834Z,-80
2019-02-23T01:11:20.589Z,-80
2019-02-23T01:13:48.343Z,-79
2019-02-23T01:16:16.076Z,-81
2019-02-23T01:18:43.875Z,-70
2019-02-23T01:21:11.618Z,-70
2019-02-23T01:23:39.368Z,-68
2019-02-23T01:26:07.263Z,-69
2019-02-23T01:28:35.005Z,-70
2019-02-23T01:31:02.787Z,-70
2019-02-23T01:33:30.573Z,-68
2019-02-23T01:35:58.314Z,-69
2019-02-23T01:38:26.097Z,-70
2019-02-23T01:40:53.869Z,-69
2019-02-23T01:43:21.730Z,-70
2019-02-23T01:45:49.515Z,-69
2019-02-23T01:48:17.254Z,-69
2019-02-23T01:50:44.985Z,-70
2019-02-23T01:53:12.771Z,-71
2019-02-23T01:55:40.546Z,-71
2019-02-23T01:58:08.308Z,-69
2019-02-23T02:00:38.203Z,-68
2019-02-23T02:03:05.926Z,-70
2019-02-23T02:05:33.828Z,-70
2019-02-23T02:08:01.580Z,-68
2019-02-23T02:10:29.566Z,-70
2019-02-23T02:12:57.317Z,-70
2019-02-23T02:15:25.054Z,-71
2019-02-23T02:17:52.782Z,-71
2019-02-23T02:20:20.542Z,-69
2019-02-23T02:22:48.361Z,-71
2019-02-23T02:25:16.121Z,-72
2019-02-23T02:27:43.883Z,-71
2019-02-23T02:30:11.942Z,-71
2019-02-23T02:32:39.702Z,-69
2019-02-23T02:35:08.812Z,-69
2019-02-23T02:37:36.564Z,-70
2019-02-23T02:40:05.141Z,-68
2019-02-23T02:42:32.869Z,-70
2019-02-23T02:45:00.605Z,-69
2019-02-23T02:47:28.373Z,-69
2019-02-23T02:49:56.128Z,-69
2019-02-23T02:52:23.953Z,-70
2019-02-23T02:54:51.792Z,-72
2019-02-23T02:57:19.583Z,-70
2019-02-23T02:59:47.337Z,-71
2019-02-23T03:02:15.128Z,-69
2019-02-23T03:04:42.962Z,-70
2019-02-23T03:07:10.793Z,-68
2019-02-23T03:09:38.557Z,-71
2019-02-23T03:12:06.353Z,-70
2019-02-23T03:14:34.060Z,-70
2019-02-23T03:17:01.818Z,-71
2019-02-23T03:19:29.562Z,-68
2019-02-23T03:22:00.341Z,-70
2019-02-23T03:24:28.152Z,-69
2019-02-23T03:26:55.889Z,-72
2019-02-23T03:29:23.628Z,-69
2019-02-23T03:31:51.411Z,-71
2019-02-23T03:34:19.163Z,-68
2019-02-23T03:36:46.887Z,-69
2019-02-23T03:39:14.679Z,-72
2019-02-23T03:41:42.414Z,-68
2019-02-23T03:44:10.175Z,-72
2019-02-23T03:46:37.938Z,-69
2019-02-23T03:49:06.071Z,-70
2019-02-23T03:51:33.834Z,-68
2019-02-23T03:54:01.546Z,-69
2019-02-23T03:56:29.326Z,-70
2019-02-23T03:58:59.938Z,-69
2019-02-23T04:01:27.712Z,-69
2019-02-23T04:03:55.473Z,-70
2019-02-23T04:06:23.330Z,-69
2019-02-23T04:08:51.112Z,-70
2019-02-23T04:11:18.905Z,-72
2019-02-23T04:13:46.672Z,-69
2019-02-23T04:16:14.427Z,-69
2019-02-23T04:18:42.188Z,-68
2019-02-23T04:21:09.924Z,-70
2019-02-23T04:23:37.709Z,-71
2019-02-23T04:26:05.464Z,-68
2019-02-23T04:28:33.213Z,-69
2019-02-23T04:31:00.983Z,-68
2019-02-23T04:33:28.942Z,-70
2019-02-23T04:35:56.661Z,-71
2019-02-23T04:38:24.402Z,-70
2019-02-23T04:40:52.295Z,-69
2019-02-23T04:43:20.049Z,-69
2019-02-23T04:45:47.989Z,-70
2019-02-23T04:48:15.787Z,-71
2019-02-23T04:50:43.533Z,-69
2019-02-23T04:53:11.321Z,-69
2019-02-23T04:55:39.054Z,-68
2019-02-23T04:58:06.828Z,-70
2019-02-23T05:00:34.671Z,-69
2019-02-23T05:03:02.450Z,-71
2019-02-23T05:05:30.190Z,-69
2019-02-23T05:07:57.941Z,-69
2019-02-23T05:10:25.922Z,-68
2019-02-23T05:12:53.696Z,-70
2019-02-23T05:15:21.456Z,-69
2019-02-23T05:17:49.218Z,-70
2019-02-23T05:20:16.948Z,-69
2019-02-23T05:22:44.690Z,-69
2019-02-23T05:25:12.432Z,-71
2019-02-23T05:27:40.193Z,-68
2019-02-23T05:30:08.948Z,-70
2019-02-23T05:32:36.709Z,-69
2019-02-23T05:35:05.209Z,-69
2019-02-23T05:37:32.943Z,-70
2019-02-23T05:40:00.723Z,-69
2019-02-23T05:42:28.491Z,-70
2019-02-23T05:44:56.264Z,-70
2019-02-23T05:47:24.036Z,-70
2019-02-23T05:49:51.834Z,-69
2019-02-23T05:52:19.590Z,-69
2019-02-23T05:54:47.363Z,-70
2019-02-23T05:57:15.138Z,-69
2019-02-23T05:59:43.151Z,-69
2019-02-23T06:02:11.012Z,-70
2019-02-23T06:04:38.853Z,-69
2019-02-23T06:07:06.631Z,-69
2019-02-23T06:09:34.426Z,-70
2019-02-23T06:12:02.216Z,-70
2019-02-23T06:14:29.970Z,-70
2019-02-23T06:16:57.756Z,-69
2019-02-23T06:19:25.574Z,-69
2019-02-23T06:21:54.540Z,-70
2019-02-23T06:24:22.538Z,-70
2019-02-23T06:26:50.336Z,-69
2019-02-23T06:29:18.103Z,-69
2019-02-23T06:31:45.891Z,-68
2019-02-23T06:34:16.513Z,-70
2019-02-23T06:36:43.284Z,-69
2019-02-23T06:39:11.019Z,-70
2019-02-23T06:41:38.811Z,-69
2019-02-23T06:44:06.547Z,-70
2019-02-23T06:46:34.319Z,-69
2019-02-23T06:49:02.069Z,-68
2019-02-23T06:51:29.865Z,-71
2019-02-23T06:53:57.627Z,-70
2019-02-23T06:56:25.418Z,-70
2019-02-23T06:58:53.205Z,-70
2019-02-23T07:01:20.979Z,-70
2019-02-23T07:03:48.691Z,-70
2019-02-23T07:06:16.499Z,-70
2019-02-23T07:08:44.511Z,-70
2019-02-23T07:11:12.295Z,-70
2019-02-23T07:13:40.065Z,-69
2019-02-23T07:16:07.863Z,-69
2019-02-23T07:18:35.629Z,-70
2019-02-23T07:21:03.380Z,-71
2019-02-23T07:23:31.113Z,-69
2019-02-23T07:25:58.860Z,-68
2019-02-23T07:28:26.609Z,-69
2019-02-23T07:30:54.365Z,-70
2019-02-23T07:33:32.328Z,-71
2019-02-23T07:35:51.781Z,-69
2019-02-23T07:38:19.537Z,-69
2019-02-23T07:40:47.287Z,-70
2019-02-23T07:43:15.039Z,-70
2019-02-23T07:45:42.816Z,-71
2019-02-23T07:48:10.565Z,-69
2019-02-23T07:50:38.331Z,-69
2019-02-23T07:53:06.098Z,-69
2019-02-23T07:55:33.846Z,-71
2019-02-23T07:58:01.636Z,-70
2019-02-23T08:00:29.408Z,-71
2019-02-23T08:02:57.204Z,-69
2019-02-23T08:05:25.025Z,-78
2019-02-23T08:07:52.810Z,-71
2019-02-23T08:10:20.568Z,-72
2019-02-23T08:12:48.365Z,-73
2019-02-23T08:15:16.099Z,-73
2019-02-23T08:17:43.925Z,-72
2019-02-23T08:20:11.761Z,-73
2019-02-23T08:22:39.567Z,-70
2019-02-23T08:25:07.627Z,-72
2019-02-23T08:27:35.389Z,-72
2019-02-23T08:30:03.540Z,-72
2019-02-23T08:32:31.327Z,-74
2019-02-23T08:34:59.146Z,-73
2019-02-23T08:37:26.939Z,-75
2019-02-23T08:39:54.776Z,-73
2019-02-23T08:42:22.629Z,-73
2019-02-23T08:44:50.384Z,-73
2019-02-23T08:47:18.182Z,-73
2019-02-23T08:49:45.913Z,-74
2019-02-23T08:52:15.207Z,-74
2019-02-23T08:54:43.031Z,-73
2019-02-23T08:57:10.831Z,-75
2019-02-23T08:59:38.583Z,-76
2019-02-23T09:02:06.386Z,-73
2019-02-23T09:04:34.154Z,-72
2019-02-23T09:07:01.996Z,-72
2019-02-23T09:09:29.761Z,-73
2019-02-23T09:11:57.527Z,-76
2019-02-23T09:14:25.302Z,-73
2019-02-23T09:16:53.130Z,-77
2019-02-23T09:19:20.952Z,-72
2019-02-23T09:21:48.728Z,-74
2019-02-23T09:24:16.481Z,-73
2019-02-23T09:26:44.276Z,-74
2019-02-23T09:29:12.096Z,-74
2019-02-23T09:31:39.884Z,-73
2019-02-23T09:34:07.673Z,-72
2019-02-23T09:36:35.493Z,-84
2019-02-23T09:39:04.380Z,-86
2019-02-23T09:41:32.148Z,-85
2019-02-23T09:43:59.898Z,-84
2019-02-23T09:46:27.733Z,-84
2019-02-23T09:48:56.363Z,-86
2019-02-23T09:51:24.257Z,-85
2019-02-23T09:53:52.016Z,-87
2019-02-23T09:56:19.814Z,-84
2019-02-23T09:58:47.631Z,-85
2019-02-23T10:01:15.592Z,-85
2019-02-23T10:03:43.396Z,-87
2019-02-23T10:06:11.241Z,-85
2019-02-23T10:08:39.006Z,-87
2019-02-23T10:11:07.160Z,-86
2019-02-23T10:13:34.923Z,-87
2019-02-23T10:16:02.796Z,-86
2019-02-23T10:18:30.589Z,-86
2019-02-23T10:20:58.437Z,-84
2019-02-23T10:23:26.280Z,-88
2019-02-23T10:25:54.060Z,-89
2019-02-23T10:28:21.823Z,-84
2019-02-23T10:30:49.606Z,-85
2019-02-23T10:33:17.367Z,-82
2019-02-23T10:35:45.094Z,-86
2019-02-23T10:38:12.871Z,-84
2019-02-23T10:40:40.650Z,-83
2019-02-23T10:43:08.391Z,-82
2019-02-23T10:45:36.187Z,-82
2019-02-23T10:48:05.338Z,-79
2019-02-23T10:50:33.149Z,-81
2019-02-23T10:53:00.939Z,-82
2019-02-23T10:55:28.813Z,-82
2019-02-23T10:57:56.614Z,-81
2019-02-23T11:00:27.281Z,-82
2019-02-23T11:02:55.045Z,-82
2019-02-23T11:05:23.007Z,-84
2019-02-23T11:07:50.795Z,-84
2019-02-23T11:10:18.769Z,-82
2019-02-23T11:12:46.527Z,-81
2019-02-23T11:15:14.807Z,-82
2019-02-23T11:17:42.595Z,-82
2019-02-23T11:20:10.975Z,-81
2019-02-23T11:22:38.899Z,-84
2019-02-23T11:25:07.438Z,-82
2019-02-23T11:27:35.262Z,-80
2019-02-23T11:30:03.808Z,-81
2019-02-23T11:32:31.590Z,-82
2019-02-23T11:34:59.346Z,-86
2019-02-23T11:37:27.182Z,-84
2019-02-23T11:39:54.935Z,-84
2019-02-23T11:42:22.771Z,-84
2019-02-23T11:44:50.541Z,-86
2019-02-23T11:47:18.336Z,-83
2019-02-23T11:49:46.129Z,-83
2019-02-23T11:52:13.918Z,-82
2019-02-23T11:54:44.099Z,-85
2019-02-23T11:57:11.407Z,-85
2019-02-23T11:59:39.181Z,-84
2019-02-23T12:02:06.956Z,-86
2019-02-23T12:04:34.723Z,-81
2019-02-23T12:07:02.536Z,-87
2019-02-23T12:09:30.294Z,-82
2019-02-23T12:11:58.048Z,-84
2019-02-23T12:14:26.019Z,-86
2019-02-23T12:16:53.806Z,-86
2019-02-23T12:19:21.557Z,-87
2019-02-23T12:21:49.339Z,-86
2019-02-23T12:24:17.072Z,-87
2019-02-23T12:26:44.806Z,-87
2019-02-23T12:29:12.574Z,-88
2019-02-23T12:31:40.362Z,-88
2019-02-23T12:34:08.131Z,-86
2019-02-23T12:36:35.940Z,-86
2019-02-23T12:39:04.683Z,-88
2019-02-23T12:41:32.474Z,-88
2019-02-23T12:44:00.238Z,-88
2019-02-23T12:46:27.945Z,-86
2019-02-23T12:48:55.744Z,-84
2019-02-23T12:51:23.500Z,-85
2019-02-23T12:53:51.240Z,-86
2019-02-23T12:56:18.999Z,-85
2019-02-23T12:58:48.706Z,-83
2019-02-23T13:01:16.481Z,-84
2019-02-23T13:03:44.269Z,-83
2019-02-23T13:06:12.041Z,-85
2019-02-23T13:09:17.122Z,-86
2019-02-23T13:12:15.095Z,-83
2019-02-23T13:15:15.188Z,-83
2019-02-23T13:19:06.743Z,-87
2019-02-23T13:22:22.192Z,-85
2019-02-23T13:25:34.334Z,-85
2019-02-23T13:28:59.771Z,-84
2019-02-23T13:32:09.704Z,-89
2019-02-23T13:35:37.642Z,-86
2019-02-23T13:38:49.434Z,-84
2019-02-23T13:42:00.231Z,-83
2019-02-23T13:45:18.259Z,-85
2019-02-23T13:48:36.885Z,-86
2019-02-23T13:51:50.355Z,-87
2019-02-23T13:55:18.853Z,-83
2019-02-23T13:58:19.255Z,-84
2019-02-23T14:01:36.924Z,-87
2019-02-23T14:04:57.785Z,-85
2019-02-23T14:08:43.473Z,-85
2019-02-23T14:12:01.926Z,-85
2019-02-23T14:15:49.131Z,-87
2019-02-23T14:19:10.098Z,-80
2019-02-23T14:22:46.056Z,-84
2019-02-23T14:26:15.714Z,-81
2019-02-23T14:29:34.468Z,-85
2019-02-23T14:32:56.385Z,-82
2019-02-23T14:36:24.394Z,-84
2019-02-23T14:39:50.484Z,-84
2019-02-23T14:43:17.396Z,-79
2019-02-23T14:46:57.022Z,-84
2019-02-23T14:49:58.237Z,-81
2019-02-23T14:53:19.542Z,-81
2019-02-23T14:57:02.674Z,-83
2019-02-23T15:00:20.905Z,-83
2019-02-23T15:04:00.232Z,-82
2019-02-23T15:07:49.941Z,-82
2019-02-23T15:11:12.920Z,-81
2019-02-23T15:14:48.992Z,-84
2019-02-23T15:18:00.633Z,-83
2019-02-23T15:21:18.118Z,-83
2019-02-23T15:24:47.250Z,-86
2019-02-23T15:27:53.537Z,-81
2019-02-23T15:31:29.097Z,-83
2019-02-23T15:34:54.124Z,-84
2019-02-23T15:38:33.125Z,-86
2019-02-23T15:41:47.396Z,-84
2019-02-23T15:45:01.619Z,-87
2019-02-23T15:48:34.603Z,-87
2019-02-23T15:51:02.407Z,-85
2019-02-23T15:53:30.225Z,-86
2019-02-23T15:55:58.061Z,-86
2019-02-23T15:58:25.860Z,-89
2019-02-23T16:00:53.731Z,-88
2019-02-23T16:03:21.510Z,-86
2019-02-23T16:05:49.421Z,-86
2019-02-23T16:08:17.217Z,-85
2019-02-23T16:10:45.055Z,-86
2019-02-23T16:13:12.792Z,-86
2019-02-23T16:15:40.588Z,-87
2019-02-23T16:18:08.347Z,-88
2019-02-23T16:20:36.220Z,-86
2019-02-23T16:23:04.020Z,-87
2019-02-23T16:25:38.370Z,-86
2019-02-23T16:28:01.609Z,-87
2019-02-23T16:30:29.464Z,-87
2019-02-23T16:32:57.285Z,-87
2019-02-23T16:35:25.055Z,-82
2019-02-23T16:37:52.857Z,-83
2019-02-23T16:40:20.655Z,-84
2019-02-23T16:42:48.418Z,-84
2019-02-23T16:45:16.214Z,-84
2019-02-23T16:47:43.986Z,-87
2019-02-23T16:50:11.764Z,-84
2019-02-23T16:52:39.613Z,-87
2019-02-23T16:55:07.385Z,-85
2019-02-23T16:57:35.171Z,-84
2019-02-23T17:00:03.306Z,-87
2019-02-23T17:02:31.054Z,-85
2019-02-23T17:04:58.862Z,-87
2019-02-23T17:07:26.630Z,-87
2019-02-23T17:09:54.727Z,-86
2019-02-23T17:12:22.474Z,-71
2019-02-23T17:14:50.247Z,-71
2019-02-23T17:17:18.016Z,-70
2019-02-23T17:19:45.818Z,-72
2019-02-23T17:22:13.601Z,-72
2019-02-23T17:24:41.367Z,-71
2019-02-23T17:27:09.186Z,-71
2019-02-23T17:29:37.021Z,-73
2019-02-23T17:32:06.756Z,-84
2019-02-23T17:34:34.555Z,-84
2019-02-23T17:37:02.321Z,-83
2019-02-23T17:39:30.121Z,-85
2019-02-23T17:41:57.979Z,-84
2019-02-23T17:44:25.764Z,-84
2019-02-23T17:46:53.551Z,-84
2019-02-23T17:49:21.336Z,-83
2019-02-23T17:51:49.110Z,-83
2019-02-23T17:54:16.858Z,-84
2019-02-23T17:56:44.617Z,-84
2019-02-23T17:59:12.402Z,-84
2019-02-23T18:01:40.244Z,-86
2019-02-23T18:04:08.039Z,-83
2019-02-23T18:06:35.781Z,-83
2019-02-23T18:09:04.454Z,-87
2019-02-23T18:11:32.205Z,-86
2019-02-23T18:13:59.974Z,-85
2019-02-23T18:16:27.774Z,-84
2019-02-23T18:18:57.610Z,-86
2019-02-23T18:21:25.571Z,-85
2019-02-23T18:23:53.336Z,-85
2019-02-23T18:26:22.074Z,-86
2019-02-23T18:28:49.934Z,-87
2019-02-23T18:31:17.786Z,-83
2019-02-23T18:33:45.614Z,-85
2019-02-23T18:36:13.441Z,-86
2019-02-23T18:38:41.376Z,-85
2019-02-23T18:41:09.185Z,-85
2019-02-23T18:43:37.091Z,-84
2019-02-23T18:46:05.018Z,-87
2019-02-23T18:48:32.815Z,-86
2019-02-23T18:51:00.891Z,-70
2019-02-23T18:53:28.674Z,-72
2019-02-23T18:55:56.476Z,-72
2019-02-23T18:58:24.272Z,-71
2019-02-23T19:00:52.058Z,-70
2019-02-23T19:03:19.846Z,-70
2019-02-23T19:05:49.945Z,-69
2019-02-23T19:08:17.265Z,-71
2019-02-23T19:10:45.125Z,-71
2019-02-23T19:13:12.869Z,-72
2019-02-23T19:15:40.693Z,-70
2019-02-23T19:18:08.490Z,-73
2019-02-23T19:20:36.283Z,-70
2019-02-23T19:23:04.041Z,-70
2019-02-23T19:25:31.857Z,-73
2019-02-23T19:27:59.617Z,-71
2019-02-23T19:30:27.471Z,-71
2019-02-23T19:32:55.191Z,-71
2019-02-23T19:35:22.995Z,-70
2019-02-23T19:37:50.850Z,-73
2019-02-23T19:40:18.691Z,-72
2019-02-23T19:42:46.511Z,-72
2019-02-23T19:45:14.312Z,-71
2019-02-23T19:47:42.117Z,-72
2019-02-23T19:50:14.691Z,-71
2019-02-23T19:52:42.835Z,-70
2019-02-23T19:55:12.840Z,-70
2019-02-23T19:57:40.710Z,-72
2019-02-23T20:00:08.568Z,-70
2019-02-23T20:02:36.358Z,-71
2019-02-23T20:05:04.298Z,-71
2019-02-23T20:07:32.091Z,-72
2019-02-23T20:09:59.889Z,-73
2019-02-23T20:12:28.233Z,-72
2019-02-23T20:14:56.099Z,-72
2019-02-23T20:17:23.932Z,-70
2019-02-23T20:19:51.685Z,-72
2019-02-23T20:22:19.476Z,-83
2019-02-23T20:24:48.148Z,-84
2019-02-23T20:27:15.908Z,-83
2019-02-23T20:29:43.750Z,-85
2019-02-23T20:32:11.512Z,-84
2019-02-23T20:34:39.266Z,-84
2019-02-23T20:37:07.079Z,-87
2019-02-23T20:39:34.947Z,-84
2019-02-23T20:42:02.714Z,-85
2019-02-23T20:44:30.506Z,-86
2019-02-23T20:46:58.357Z,-87
2019-02-23T20:49:26.239Z,-86
2019-02-23T20:51:54.035Z,-85
2019-02-23T20:54:24.836Z,-86
2019-02-23T20:56:52.575Z,-86
2019-02-23T20:59:20.385Z,-86
2019-02-23T21:01:48.150Z,-85
2019-02-23T21:04:15.946Z,-86
2019-02-23T21:06:43.749Z,-87
2019-02-23T21:09:11.857Z,-86
2019-02-23T21:11:39.679Z,-86
2019-02-23T21:14:07.476Z,-88
2019-02-23T21:16:35.250Z,-84
2019-02-23T21:19:03.027Z,-86
2019-02-23T21:21:30.783Z,-86
2019-02-23T21:23:58.577Z,-86
2019-02-23T21:26:26.357Z,-85
2019-02-23T21:28:54.146Z,-86
2019-02-23T21:31:21.915Z,-85
2019-02-23T21:33:49.689Z,-86
2019-02-23T21:36:17.430Z,-86
2019-02-23T21:38:45.217Z,-70
2019-02-23T21:41:13.010Z,-70
2019-02-23T21:43:40.781Z,-71
2019-02-23T21:46:08.587Z,-69
2019-02-23T21:48:36.843Z,-70
2019-02-23T21:51:04.599Z,-71
2019-02-23T21:53:32.346Z,-70
2019-02-23T21:56:00.074Z,-71
2019-02-23T21:58:27.885Z,-70
2019-02-23T22:00:55.782Z,-72
2019-02-23T22:03:23.638Z,-71
2019-02-23T22:05:51.457Z,-70
2019-02-23T22:08:19.309Z,-72
2019-02-23T22:10:47.308Z,-71
2019-02-23T22:13:15.235Z,-71
2019-02-23T22:15:43.086Z,-70
2019-02-23T22:18:10.907Z,-70
2019-02-23T22:20:38.763Z,-71
2019-02-23T22:23:06.541Z,-71
2019-02-23T22:25:34.281Z,-70
2019-02-23T22:28:02.026Z,-70
2019-02-23T22:30:29.766Z,-70
2019-02-23T22:32:57.528Z,-71
2019-02-23T22:35:25.261Z,-71
2019-02-23T22:37:53.162Z,-71
2019-02-23T22:40:20.980Z,-70
2019-02-23T22:42:48.777Z,-70
2019-02-23T22:45:16.553Z,-70
2019-02-23T22:47:44.287Z,-69
2019-02-23T22:50:12.151Z,-69
2019-02-23T22:52:39.947Z,-68
2019-02-23T22:55:07.728Z,-68
2019-02-23T22:57:40.673Z,-69
2019-02-23T23:00:07.376Z,-69
2019-02-23T23:02:35.122Z,-68
2019-02-23T23:05:03.043Z,-69
2019-02-23T23:07:30.833Z,-70
2019-02-23T23:09:58.593Z,-69
2019-02-23T23:12:26.373Z,-70
2019-02-23T23:14:54.197Z,-70
2019-02-23T23:17:21.973Z,-70
2019-02-23T23:19:49.760Z,-69
2019-02-23T23:22:19.412Z,-70
2019-02-23T23:24:47.177Z,-69
2019-02-23T23:27:14.928Z,-72
2019-02-23T23:29:42.764Z,-70
2019-02-23T23:32:10.497Z,-71
2019-02-23T23:34:38.255Z,-69
2019-02-23T23:37:06.025Z,-70
2019-02-23T23:39:33.876Z,-71
2019-02-23T23:42:01.668Z,-70
2019-02-23T23:44:29.486Z,-69
2019-02-23T23:46:57.313Z,-70
2019-02-23T23:49:25.166Z,-70
2019-02-23T23:51:52.975Z,-70
2019-02-23T23:54:20.778Z,-70
2019-02-23T23:56:48.582Z,-70
2019-02-23T23:59:16.325Z,-70
